Spartanburg, SC (29301)

5:18 PM EDT on September 01, 2015 (GMT -0400)
Oak Forest | | Change Station
CLOSE
Current Station
Personal Weather Station
Location: Spartanburg, SC
Elevation: 787 ft
Nearby Weather Stations

Elev 787 ft 34.91 °N, 82.00 °W | Updated 10 seconds ago

Mostly Cloudy
Mostly Cloudy
89.4 °F
Feels Like 93 °F
N
0.0
Wind Variable Wind from South
Gusts 0.0 mph

Today
High -- | Low -- °F
--% Chance of Precip.
Yesterday
High -- | Low -- °F
Precip. -- in
7:00 AM 7:54 PM
Waning Gibbous, 86% visible
Pressure 30.07 in
Visibility 10.0 miles
Clouds Mostly Cloudy 5500 ft
Mostly Cloudy 7500 ft
Heat Index 93 °F
Dew Point 67 °F
Humidity 48%
Rainfall 0.00 in
Snow Depth Not available.
UV 1.0 out of 12
Pollen 8.40 out of 12
Air Quality Not available.
Flu Activity Not available.
METAR KSPA 012115Z AUTO 16003KT 10SM BKN055 BKN075 33/17 A3007 RMK AO2
Pressure 30.07 in
Visibility 10.0 miles
Clouds Mostly Cloudy 5500 ft
Mostly Cloudy 7500 ft
Heat Index 93 °F
Dew Point 67 °F
Humidity 48%
Rainfall 0.00 in
Snow Depth Not available.
UV 1.0 out of 12
Pollen 8.40 out of 12
Air Quality Not available.
Flu Activity Not available.
METAR KSPA 012115Z AUTO 16003KT 10SM BKN055 BKN075 33/17 A3007 RMK AO2

10-Day Weather Forecast

×

Almanac

Astronomy

Sep. 01, 2015 Rise Set
Actual Time
Civil Twilight
Nautical Twilight
Astronomical Twilight
Moon
Length of Visible Light
Length of Day
Tomorrow will be .
, % of the Moon is Illuminated

Today's Extremes

State Highs State Lows

Community

WunderPhotos

Upload Photos

1,851,617 photos uploaded!

WunderBlogs® & News

Nearby

Air Quality

  Air Quality AQ Index Pollutant
Not available.

Snow Depth

Station Depth Elevation

Earthquake Activity

City Distance Mag. Time & Date
Minimum magnitude displayed is 2.5.

Coastal Water Temperatures

Place Temperature

Stations

Nearby Weather Stations

Station Location Temp. Windchill Dew Point Humidity Wind Precip. Elev Updated Type